sensor_id;sensor_type;location;lat;lon;timestamp;P1;durP1;ratioP1;P2;durP2;ratioP2
50379;SDS011;37474;59.468;18.040;2023-12-20T00:01:55;15.45;;;2.08;;
50379;SDS011;37474;59.468;18.040;2023-12-20T00:04:23;13.83;;;1.97;;
50379;SDS011;37474;59.468;18.040;2023-12-20T00:06:52;15.90;;;2.30;;
50379;SDS011;37474;59.468;18.040;2023-12-20T00:09:20;15.23;;;2.03;;
50379;SDS011;37474;59.468;18.040;2023-12-20T00:11:48;10.27;;;1.57;;
50379;SDS011;37474;59.468;18.040;2023-12-20T00:14:17;18.27;;;2.77;;
50379;SDS011;37474;59.468;18.040;2023-12-20T00:16:45;17.70;;;2.10;;
50379;SDS011;37474;59.468;18.040;2023-12-20T00:19:16;16.57;;;2.30;;
50379;SDS011;37474;59.468;18.040;2023-12-20T00:21:44;16.00;;;1.80;;
50379;SDS011;37474;59.468;18.040;2023-12-20T00:24:12;17.00;;;1.90;;
50379;SDS011;37474;59.468;18.040;2023-12-20T00:26:41;16.83;;;1.97;;
50379;SDS011;37474;59.468;18.040;2023-12-20T00:29:09;15.13;;;2.10;;
50379;SDS011;37474;59.468;18.040;2023-12-20T00:34:08;15.10;;;2.03;;
50379;SDS011;37474;59.468;18.040;2023-12-20T00:36:36;11.47;;;1.70;;
50379;SDS011;37474;59.468;18.040;2023-12-20T00:39:04;12.87;;;2.20;;
50379;SDS011;37474;59.468;18.040;2023-12-20T00:41:33;16.93;;;1.97;;
50379;SDS011;37474;59.468;18.040;2023-12-20T00:44:01;17.70;;;1.77;;
50379;SDS011;37474;59.468;18.040;2023-12-20T00:46:33;16.10;;;1.90;;
50379;SDS011;37474;59.468;18.040;2023-12-20T00:49:08;20.23;;;3.00;;
50379;SDS011;37474;59.468;18.040;2023-12-20T00:51:36;15.90;;;1.80;;
50379;SDS011;37474;59.468;18.040;2023-12-20T00:54:04;14.00;;;2.10;;
50379;SDS011;37474;59.468;18.040;2023-12-20T00:56:32;12.57;;;1.73;;
50379;SDS011;37474;59.468;18.040;2023-12-20T00:59:00;12.33;;;1.83;;
50379;SDS011;37474;59.468;18.040;2023-12-20T01:01:28;13.77;;;1.70;;
50379;SDS011;37474;59.468;18.040;2023-12-20T01:03:56;12.33;;;1.83;;
50379;SDS011;37474;59.468;18.040;2023-12-20T01:06:26;21.03;;;2.03;;
50379;SDS011;37474;59.468;18.040;2023-12-20T01:08:54;15.02;;;2.05;;
50379;SDS011;37474;59.468;18.040;2023-12-20T01:11:22;13.10;;;1.97;;
50379;SDS011;37474;59.468;18.040;2023-12-20T01:13:52;17.27;;;2.03;;
50379;SDS011;37474;59.468;18.040;2023-12-20T01:16:20;20.30;;;2.10;;
50379;SDS011;37474;59.468;18.040;2023-12-20T01:18:51;20.10;;;2.47;;
50379;SDS011;37474;59.468;18.040;2023-12-20T01:21:19;14.33;;;1.60;;
50379;SDS011;37474;59.468;18.040;2023-12-20T01:23:49;19.03;;;2.10;;
50379;SDS011;37474;59.468;18.040;2023-12-20T01:26:17;13.52;;;2.10;;
50379;SDS011;37474;59.468;18.040;2023-12-20T01:28:45;14.43;;;1.93;;
50379;SDS011;37474;59.468;18.040;2023-12-20T01:31:13;19.50;;;2.47;;
50379;SDS011;37474;59.468;18.040;2023-12-20T01:33:41;16.07;;;2.13;;
50379;SDS011;37474;59.468;18.040;2023-12-20T01:36:12;18.83;;;2.40;;
50379;SDS011;37474;59.468;18.040;2023-12-20T01:38:41;15.70;;;1.73;;
50379;SDS011;37474;59.468;18.040;2023-12-20T01:41:10;20.43;;;2.50;;
50379;SDS011;37474;59.468;18.040;2023-12-20T01:43:42;24.90;;;2.00;;
50379;SDS011;37474;59.468;18.040;2023-12-20T01:46:17;22.43;;;2.40;;
50379;SDS011;37474;59.468;18.040;2023-12-20T01:48:50;13.77;;;2.17;;
50379;SDS011;37474;59.468;18.040;2023-12-20T01:51:20;22.60;;;2.47;;
50379;SDS011;37474;59.468;18.040;2023-12-20T01:53:49;14.83;;;2.07;;
50379;SDS011;37474;59.468;18.040;2023-12-20T01:56:21;22.97;;;2.47;;
50379;SDS011;37474;59.468;18.040;2023-12-20T01:58:49;23.00;;;2.15;;
50379;SDS011;37474;59.468;18.040;2023-12-20T02:01:17;19.63;;;2.77;;
50379;SDS011;37474;59.468;18.040;2023-12-20T02:03:46;15.80;;;2.10;;
50379;SDS011;37474;59.468;18.040;2023-12-20T02:06:15;19.10;;;2.47;;
50379;SDS011;37474;59.468;18.040;2023-12-20T02:08:44;20.33;;;2.43;;
50379;SDS011;37474;59.468;18.040;2023-12-20T02:11:12;17.53;;;2.00;;
50379;SDS011;37474;59.468;18.040;2023-12-20T02:13:41;21.73;;;1.97;;
50379;SDS011;37474;59.468;18.040;2023-12-20T02:16:09;22.80;;;3.03;;
50379;SDS011;37474;59.468;18.040;2023-12-20T02:18:40;16.40;;;1.87;;
50379;SDS011;37474;59.468;18.040;2023-12-20T02:21:11;23.03;;;2.20;;
50379;SDS011;37474;59.468;18.040;2023-12-20T02:23:40;17.67;;;2.07;;
50379;SDS011;37474;59.468;18.040;2023-12-20T02:26:09;16.30;;;2.60;;
50379;SDS011;37474;59.468;18.040;2023-12-20T02:28:40;27.50;;;2.43;;
50379;SDS011;37474;59.468;18.040;2023-12-20T02:31:08;18.20;;;2.33;;
50379;SDS011;37474;59.468;18.040;2023-12-20T02:33:36;21.33;;;2.33;;
50379;SDS011;37474;59.468;18.040;2023-12-20T02:36:06;20.52;;;2.53;;
50379;SDS011;37474;59.468;18.040;2023-12-20T02:38:34;25.00;;;2.30;;
50379;SDS011;37474;59.468;18.040;2023-12-20T02:41:03;19.53;;;3.10;;
50379;SDS011;37474;59.468;18.040;2023-12-20T02:43:31;13.13;;;1.80;;
50379;SDS011;37474;59.468;18.040;2023-12-20T02:45:59;14.43;;;2.43;;
50379;SDS011;37474;59.468;18.040;2023-12-20T02:50:57;23.13;;;2.23;;
50379;SDS011;37474;59.468;18.040;2023-12-20T02:55:56;17.50;;;2.00;;
50379;SDS011;37474;59.468;18.040;2023-12-20T02:58:25;22.97;;;2.23;;
50379;SDS011;37474;59.468;18.040;2023-12-20T03:00:53;18.07;;;2.97;;
50379;SDS011;37474;59.468;18.040;2023-12-20T03:03:21;17.23;;;2.47;;
50379;SDS011;37474;59.468;18.040;2023-12-20T03:05:50;25.77;;;2.30;;
50379;SDS011;37474;59.468;18.040;2023-12-20T03:08:18;23.67;;;2.57;;
50379;SDS011;37474;59.468;18.040;2023-12-20T03:10:46;27.70;;;3.10;;
50379;SDS011;37474;59.468;18.040;2023-12-20T03:13:14;20.13;;;2.97;;
50379;SDS011;37474;59.468;18.040;2023-12-20T03:15:44;18.20;;;1.87;;
50379;SDS011;37474;59.468;18.040;2023-12-20T03:18:12;22.75;;;2.80;;
50379;SDS011;37474;59.468;18.040;2023-12-20T03:20:40;24.13;;;2.67;;
50379;SDS011;37474;59.468;18.040;2023-12-20T03:23:08;23.57;;;2.37;;
50379;SDS011;37474;59.468;18.040;2023-12-20T03:25:36;20.90;;;2.27;;
50379;SDS011;37474;59.468;18.040;2023-12-20T03:28:04;15.63;;;2.13;;
50379;SDS011;37474;59.468;18.040;2023-12-20T03:30:33;17.13;;;2.13;;
50379;SDS011;37474;59.468;18.040;2023-12-20T03:33:02;19.87;;;2.60;;
50379;SDS011;37474;59.468;18.040;2023-12-20T03:35:33;20.63;;;2.57;;
50379;SDS011;37474;59.468;18.040;2023-12-20T03:38:03;25.23;;;2.35;;
50379;SDS011;37474;59.468;18.040;2023-12-20T03:40:31;22.17;;;2.17;;
50379;SDS011;37474;59.468;18.040;2023-12-20T03:42:59;24.93;;;2.70;;
50379;SDS011;37474;59.468;18.040;2023-12-20T03:45:27;18.53;;;2.20;;
50379;SDS011;37474;59.468;18.040;2023-12-20T03:47:58;19.30;;;2.60;;
50379;SDS011;37474;59.468;18.040;2023-12-20T03:50:28;24.57;;;2.40;;
50379;SDS011;37474;59.468;18.040;2023-12-20T03:52:56;16.30;;;2.13;;
50379;SDS011;37474;59.468;18.040;2023-12-20T03:55:24;18.17;;;2.30;;
50379;SDS011;37474;59.468;18.040;2023-12-20T03:57:54;16.07;;;2.10;;
50379;SDS011;37474;59.468;18.040;2023-12-20T04:00:22;18.70;;;2.72;;
50379;SDS011;37474;59.468;18.040;2023-12-20T04:02:50;18.93;;;2.47;;
50379;SDS011;37474;59.468;18.040;2023-12-20T04:05:21;21.60;;;2.60;;
50379;SDS011;37474;59.468;18.040;2023-12-20T04:07:50;15.52;;;2.20;;
50379;SDS011;37474;59.468;18.040;2023-12-20T04:10:18;18.55;;;1.88;;
50379;SDS011;37474;59.468;18.040;2023-12-20T04:12:46;25.73;;;2.63;;
50379;SDS011;37474;59.468;18.040;2023-12-20T04:15:14;17.13;;;2.60;;
50379;SDS011;37474;59.468;18.040;2023-12-20T04:17:42;15.93;;;2.07;;
50379;SDS011;37474;59.468;18.040;2023-12-20T04:20:11;16.50;;;2.27;;
50379;SDS011;37474;59.468;18.040;2023-12-20T04:22:39;24.57;;;2.70;;
50379;SDS011;37474;59.468;18.040;2023-12-20T04:25:10;18.00;;;2.20;;
50379;SDS011;37474;59.468;18.040;2023-12-20T04:27:38;19.67;;;3.40;;
50379;SDS011;37474;59.468;18.040;2023-12-20T04:30:07;17.13;;;2.87;;
50379;SDS011;37474;59.468;18.040;2023-12-20T04:32:35;21.83;;;2.63;;
50379;SDS011;37474;59.468;18.040;2023-12-20T04:35:04;16.80;;;2.70;;
50379;SDS011;37474;59.468;18.040;2023-12-20T04:37:32;20.27;;;2.30;;
50379;SDS011;37474;59.468;18.040;2023-12-20T04:40:00;18.70;;;2.30;;
50379;SDS011;37474;59.468;18.040;2023-12-20T04:42:30;16.80;;;3.07;;
50379;SDS011;37474;59.468;18.040;2023-12-20T04:44:58;15.55;;;2.25;;
50379;SDS011;37474;59.468;18.040;2023-12-20T04:47:25;20.57;;;2.87;;
50379;SDS011;37474;59.468;18.040;2023-12-20T04:49:56;19.90;;;2.90;;
50379;SDS011;37474;59.468;18.040;2023-12-20T04:52:24;14.98;;;2.30;;
50379;SDS011;37474;59.468;18.040;2023-12-20T04:54:52;19.13;;;2.83;;
50379;SDS011;37474;59.468;18.040;2023-12-20T04:57:21;19.13;;;3.37;;
50379;SDS011;37474;59.468;18.040;2023-12-20T04:59:50;20.80;;;3.23;;
50379;SDS011;37474;59.468;18.040;2023-12-20T05:02:18;16.43;;;3.00;;
50379;SDS011;37474;59.468;18.040;2023-12-20T05:04:50;14.60;;;3.30;;
50379;SDS011;37474;59.468;18.040;2023-12-20T05:07:21;21.60;;;2.90;;
50379;SDS011;37474;59.468;18.040;2023-12-20T05:09:49;17.43;;;3.00;;
50379;SDS011;37474;59.468;18.040;2023-12-20T05:12:17;18.40;;;2.90;;
50379;SDS011;37474;59.468;18.040;2023-12-20T05:14:45;21.13;;;2.80;;
50379;SDS011;37474;59.468;18.040;2023-12-20T05:17:15;13.53;;;2.73;;
50379;SDS011;37474;59.468;18.040;2023-12-20T05:19:46;20.33;;;2.67;;
50379;SDS011;37474;59.468;18.040;2023-12-20T05:22:15;17.73;;;3.23;;
50379;SDS011;37474;59.468;18.040;2023-12-20T05:24:45;14.60;;;2.73;;
50379;SDS011;37474;59.468;18.040;2023-12-20T05:27:13;11.63;;;2.37;;
50379;SDS011;37474;59.468;18.040;2023-12-20T05:29:41;13.03;;;2.57;;
50379;SDS011;37474;59.468;18.040;2023-12-20T05:32:09;17.20;;;3.20;;
50379;SDS011;37474;59.468;18.040;2023-12-20T05:34:39;16.40;;;2.80;;
50379;SDS011;37474;59.468;18.040;2023-12-20T05:37:07;16.90;;;3.27;;
50379;SDS011;37474;59.468;18.040;2023-12-20T05:39:35;14.13;;;2.80;;
50379;SDS011;37474;59.468;18.040;2023-12-20T05:42:03;23.10;;;3.10;;
50379;SDS011;37474;59.468;18.040;2023-12-20T05:44:34;16.50;;;3.27;;
50379;SDS011;37474;59.468;18.040;2023-12-20T05:47:03;15.00;;;3.07;;
50379;SDS011;37474;59.468;18.040;2023-12-20T05:49:31;15.90;;;2.90;;
50379;SDS011;37474;59.468;18.040;2023-12-20T05:52:00;19.47;;;3.50;;
50379;SDS011;37474;59.468;18.040;2023-12-20T05:54:29;10.90;;;2.33;;
50379;SDS011;37474;59.468;18.040;2023-12-20T05:56:57;14.60;;;2.87;;
50379;SDS011;37474;59.468;18.040;2023-12-20T05:59:28;16.23;;;3.20;;
50379;SDS011;37474;59.468;18.040;2023-12-20T06:01:56;12.67;;;3.50;;
50379;SDS011;37474;59.468;18.040;2023-12-20T06:04:24;11.77;;;2.77;;
50379;SDS011;37474;59.468;18.040;2023-12-20T06:06:52;16.73;;;3.27;;
50379;SDS011;37474;59.468;18.040;2023-12-20T06:09:22;13.33;;;3.10;;
50379;SDS011;37474;59.468;18.040;2023-12-20T06:11:53;19.97;;;4.07;;
50379;SDS011;37474;59.468;18.040;2023-12-20T06:14:30;12.53;;;3.93;;
50379;SDS011;37474;59.468;18.040;2023-12-20T06:16:58;19.90;;;3.80;;
50379;SDS011;37474;59.468;18.040;2023-12-20T06:19:29;15.87;;;4.07;;
50379;SDS011;37474;59.468;18.040;2023-12-20T06:24:28;16.20;;;4.33;;
50379;SDS011;37474;59.468;18.040;2023-12-20T06:26:57;22.00;;;5.20;;
50379;SDS011;37474;59.468;18.040;2023-12-20T06:29:25;15.53;;;4.57;;
50379;SDS011;37474;59.468;18.040;2023-12-20T06:31:53;26.00;;;6.00;;
50379;SDS011;37474;59.468;18.040;2023-12-20T06:34:21;23.23;;;6.17;;
50379;SDS011;37474;59.468;18.040;2023-12-20T06:36:49;16.97;;;5.77;;
50379;SDS011;37474;59.468;18.040;2023-12-20T06:39:17;19.07;;;5.70;;
50379;SDS011;37474;59.468;18.040;2023-12-20T06:41:46;23.13;;;6.13;;
50379;SDS011;37474;59.468;18.040;2023-12-20T06:44:17;19.80;;;5.67;;
50379;SDS011;37474;59.468;18.040;2023-12-20T06:46:45;19.80;;;6.03;;
50379;SDS011;37474;59.468;18.040;2023-12-20T06:49:13;17.13;;;5.73;;
50379;SDS011;37474;59.468;18.040;2023-12-20T06:51:41;18.10;;;6.53;;
50379;SDS011;37474;59.468;18.040;2023-12-20T06:54:13;12.43;;;5.50;;
50379;SDS011;37474;59.468;18.040;2023-12-20T06:56:43;19.73;;;5.77;;
50379;SDS011;37474;59.468;18.040;2023-12-20T06:59:12;15.07;;;7.07;;
50379;SDS011;37474;59.468;18.040;2023-12-20T07:01:40;28.23;;;8.73;;
50379;SDS011;37474;59.468;18.040;2023-12-20T07:04:09;20.57;;;7.40;;
50379;SDS011;37474;59.468;18.040;2023-12-20T07:06:37;19.73;;;7.90;;
50379;SDS011;37474;59.468;18.040;2023-12-20T07:09:07;17.52;;;6.93;;
50379;SDS011;37474;59.468;18.040;2023-12-20T07:11:35;16.63;;;6.20;;
50379;SDS011;37474;59.468;18.040;2023-12-20T07:14:04;27.92;;;7.30;;
50379;SDS011;37474;59.468;18.040;2023-12-20T07:16:35;22.53;;;6.30;;
50379;SDS011;37474;59.468;18.040;2023-12-20T07:19:03;23.57;;;6.47;;
50379;SDS011;37474;59.468;18.040;2023-12-20T07:21:31;18.47;;;6.30;;
50379;SDS011;37474;59.468;18.040;2023-12-20T07:23:59;21.37;;;7.17;;
50379;SDS011;37474;59.468;18.040;2023-12-20T07:26:27;16.83;;;6.97;;
50379;SDS011;37474;59.468;18.040;2023-12-20T07:28:55;27.20;;;8.30;;
50379;SDS011;37474;59.468;18.040;2023-12-20T07:31:25;21.58;;;7.65;;
50379;SDS011;37474;59.468;18.040;2023-12-20T07:33:57;27.33;;;8.00;;
50379;SDS011;37474;59.468;18.040;2023-12-20T07:36:26;26.10;;;8.57;;
50379;SDS011;37474;59.468;18.040;2023-12-20T07:38:54;27.70;;;8.40;;
50379;SDS011;37474;59.468;18.040;2023-12-20T07:41:22;26.77;;;8.93;;
50379;SDS011;37474;59.468;18.040;2023-12-20T07:43:50;50.80;;;16.87;;
50379;SDS011;37474;59.468;18.040;2023-12-20T07:46:20;40.30;;;14.73;;
50379;SDS011;37474;59.468;18.040;2023-12-20T07:48:50;56.97;;;19.77;;
50379;SDS011;37474;59.468;18.040;2023-12-20T07:51:20;29.30;;;11.87;;
50379;SDS011;37474;59.468;18.040;2023-12-20T07:53:48;31.13;;;10.27;;
50379;SDS011;37474;59.468;18.040;2023-12-20T07:56:19;21.77;;;8.87;;
50379;SDS011;37474;59.468;18.040;2023-12-20T07:58:47;29.10;;;9.73;;
50379;SDS011;37474;59.468;18.040;2023-12-20T08:01:19;19.73;;;7.83;;
50379;SDS011;37474;59.468;18.040;2023-12-20T08:03:48;27.10;;;7.82;;
50379;SDS011;37474;59.468;18.040;2023-12-20T08:06:18;23.90;;;7.50;;
50379;SDS011;37474;59.468;18.040;2023-12-20T08:08:47;24.75;;;7.53;;
50379;SDS011;37474;59.468;18.040;2023-12-20T08:11:27;20.75;;;7.78;;
50379;SDS011;37474;59.468;18.040;2023-12-20T08:13:55;29.20;;;8.73;;
50379;SDS011;37474;59.468;18.040;2023-12-20T08:16:23;27.60;;;9.40;;
50379;SDS011;37474;59.468;18.040;2023-12-20T08:18:51;30.80;;;9.17;;
50379;SDS011;37474;59.468;18.040;2023-12-20T08:21:21;33.10;;;9.70;;
50379;SDS011;37474;59.468;18.040;2023-12-20T08:23:49;25.48;;;8.68;;
50379;SDS011;37474;59.468;18.040;2023-12-20T08:26:18;28.47;;;9.13;;
50379;SDS011;37474;59.468;18.040;2023-12-20T08:28:48;24.85;;;8.98;;
50379;SDS011;37474;59.468;18.040;2023-12-20T08:31:16;27.40;;;9.43;;
50379;SDS011;37474;59.468;18.040;2023-12-20T08:33:45;26.90;;;10.77;;
50379;SDS011;37474;59.468;18.040;2023-12-20T08:36:17;25.97;;;9.50;;
50379;SDS011;37474;59.468;18.040;2023-12-20T08:38:49;35.33;;;10.37;;
50379;SDS011;37474;59.468;18.040;2023-12-20T08:41:17;34.60;;;10.50;;
50379;SDS011;37474;59.468;18.040;2023-12-20T08:43:45;25.80;;;10.73;;
50379;SDS011;37474;59.468;18.040;2023-12-20T08:46:17;34.13;;;10.43;;
50379;SDS011;37474;59.468;18.040;2023-12-20T08:48:45;28.80;;;10.97;;
50379;SDS011;37474;59.468;18.040;2023-12-20T08:51:13;37.07;;;12.17;;
50379;SDS011;37474;59.468;18.040;2023-12-20T08:53:41;42.20;;;12.37;;
50379;SDS011;37474;59.468;18.040;2023-12-20T08:56:13;35.33;;;11.55;;
50379;SDS011;37474;59.468;18.040;2023-12-20T08:58:41;29.67;;;12.10;;
50379;SDS011;37474;59.468;18.040;2023-12-20T09:01:09;34.33;;;13.23;;
50379;SDS011;37474;59.468;18.040;2023-12-20T09:03:40;32.90;;;12.23;;
50379;SDS011;37474;59.468;18.040;2023-12-20T09:06:08;39.37;;;13.17;;
50379;SDS011;37474;59.468;18.040;2023-12-20T09:08:36;32.43;;;12.17;;
50379;SDS011;37474;59.468;18.040;2023-12-20T09:11:04;32.20;;;12.37;;
50379;SDS011;37474;59.468;18.040;2023-12-20T09:13:35;43.63;;;13.53;;
50379;SDS011;37474;59.468;18.040;2023-12-20T09:16:03;44.27;;;13.43;;
50379;SDS011;37474;59.468;18.040;2023-12-20T09:18:31;35.03;;;13.37;;
50379;SDS011;37474;59.468;18.040;2023-12-20T09:20:59;35.70;;;13.30;;
50379;SDS011;37474;59.468;18.040;2023-12-20T09:23:28;38.77;;;13.30;;
50379;SDS011;37474;59.468;18.040;2023-12-20T09:26:00;40.93;;;13.03;;
50379;SDS011;37474;59.468;18.040;2023-12-20T09:28:28;50.20;;;14.10;;
50379;SDS011;37474;59.468;18.040;2023-12-20T09:30:58;40.67;;;13.80;;
50379;SDS011;37474;59.468;18.040;2023-12-20T09:33:26;42.10;;;13.68;;
50379;SDS011;37474;59.468;18.040;2023-12-20T09:35:54;39.03;;;13.07;;
50379;SDS011;37474;59.468;18.040;2023-12-20T09:38:22;41.00;;;14.20;;
50379;SDS011;37474;59.468;18.040;2023-12-20T09:40:52;44.40;;;13.83;;
50379;SDS011;37474;59.468;18.040;2023-12-20T09:43:21;35.47;;;12.37;;
50379;SDS011;37474;59.468;18.040;2023-12-20T09:45:53;41.83;;;14.07;;
50379;SDS011;37474;59.468;18.040;2023-12-20T09:48:23;45.73;;;13.43;;
50379;SDS011;37474;59.468;18.040;2023-12-20T09:50:54;40.50;;;13.80;;
50379;SDS011;37474;59.468;18.040;2023-12-20T09:53:23;38.27;;;13.27;;
50379;SDS011;37474;59.468;18.040;2023-12-20T09:55:57;35.97;;;12.60;;
50379;SDS011;37474;59.468;18.040;2023-12-20T09:58:27;37.00;;;13.00;;
50379;SDS011;37474;59.468;18.040;2023-12-20T10:00:55;36.13;;;12.43;;
50379;SDS011;37474;59.468;18.040;2023-12-20T10:03:24;33.30;;;12.43;;
50379;SDS011;37474;59.468;18.040;2023-12-20T10:05:54;34.97;;;12.70;;
50379;SDS011;37474;59.468;18.040;2023-12-20T10:08:24;38.43;;;12.93;;
50379;SDS011;37474;59.468;18.040;2023-12-20T10:10:52;38.00;;;12.93;;
50379;SDS011;37474;59.468;18.040;2023-12-20T10:13:21;36.90;;;13.33;;
50379;SDS011;37474;59.468;18.040;2023-12-20T10:15:50;36.77;;;12.20;;
50379;SDS011;37474;59.468;18.040;2023-12-20T10:18:18;33.07;;;12.50;;
50379;SDS011;37474;59.468;18.040;2023-12-20T10:20:47;40.97;;;13.17;;
50379;SDS011;37474;59.468;18.040;2023-12-20T10:23:15;32.88;;;12.77;;
50379;SDS011;37474;59.468;18.040;2023-12-20T10:25:49;37.00;;;13.13;;
50379;SDS011;37474;59.468;18.040;2023-12-20T10:28:28;39.30;;;13.33;;
50379;SDS011;37474;59.468;18.040;2023-12-20T10:31:01;42.47;;;13.73;;
50379;SDS011;37474;59.468;18.040;2023-12-20T10:33:30;31.53;;;11.70;;
50379;SDS011;37474;59.468;18.040;2023-12-20T10:36:01;35.92;;;11.75;;
50379;SDS011;37474;59.468;18.040;2023-12-20T10:38:29;31.35;;;11.48;;
50379;SDS011;37474;59.468;18.040;2023-12-20T10:40:58;34.83;;;11.77;;
50379;SDS011;37474;59.468;18.040;2023-12-20T10:43:26;34.80;;;11.80;;
50379;SDS011;37474;59.468;18.040;2023-12-20T10:45:56;33.87;;;12.23;;
50379;SDS011;37474;59.468;18.040;2023-12-20T10:48:27;33.25;;;11.65;;
50379;SDS011;37474;59.468;18.040;2023-12-20T10:50:58;26.90;;;10.57;;
50379;SDS011;37474;59.468;18.040;2023-12-20T10:53:28;29.43;;;10.87;;
50379;SDS011;37474;59.468;18.040;2023-12-20T10:55:56;30.10;;;11.00;;
50379;SDS011;37474;59.468;18.040;2023-12-20T10:58:30;28.77;;;10.60;;
50379;SDS011;37474;59.468;18.040;2023-12-20T11:01:01;26.97;;;10.13;;
50379;SDS011;37474;59.468;18.040;2023-12-20T11:03:31;31.80;;;10.43;;
50379;SDS011;37474;59.468;18.040;2023-12-20T11:06:04;23.57;;;9.50;;
50379;SDS011;37474;59.468;18.040;2023-12-20T11:08:49;26.63;;;9.97;;
50379;SDS011;37474;59.468;18.040;2023-12-20T11:11:29;27.03;;;9.67;;
50379;SDS011;37474;59.468;18.040;2023-12-20T11:14:03;29.02;;;9.95;;
50379;SDS011;37474;59.468;18.040;2023-12-20T11:16:36;21.90;;;9.50;;
50379;SDS011;37474;59.468;18.040;2023-12-20T11:19:17;25.40;;;9.13;;
50379;SDS011;37474;59.468;18.040;2023-12-20T11:21:45;20.60;;;8.57;;
50379;SDS011;37474;59.468;18.040;2023-12-20T11:24:17;23.57;;;8.73;;
50379;SDS011;37474;59.468;18.040;2023-12-20T11:26:55;23.67;;;8.63;;
50379;SDS011;37474;59.468;18.040;2023-12-20T11:29:30;17.87;;;7.80;;
50379;SDS011;37474;59.468;18.040;2023-12-20T11:32:00;26.13;;;8.10;;
50379;SDS011;37474;59.468;18.040;2023-12-20T11:34:31;19.30;;;7.70;;
50379;SDS011;37474;59.468;18.040;2023-12-20T11:37:02;17.90;;;8.13;;
50379;SDS011;37474;59.468;18.040;2023-12-20T11:39:32;18.23;;;7.72;;
50379;SDS011;37474;59.468;18.040;2023-12-20T11:42:03;16.88;;;6.65;;
50379;SDS011;37474;59.468;18.040;2023-12-20T11:44:32;15.10;;;6.20;;
50379;SDS011;37474;59.468;18.040;2023-12-20T11:47:00;13.73;;;6.50;;
50379;SDS011;37474;59.468;18.040;2023-12-20T11:49:29;13.33;;;6.33;;
50379;SDS011;37474;59.468;18.040;2023-12-20T11:51:57;18.30;;;6.30;;
50379;SDS011;37474;59.468;18.040;2023-12-20T11:54:26;12.43;;;6.07;;
50379;SDS011;37474;59.468;18.040;2023-12-20T11:56:59;11.53;;;5.63;;
50379;SDS011;37474;59.468;18.040;2023-12-20T11:59:27;10.55;;;4.90;;
50379;SDS011;37474;59.468;18.040;2023-12-20T12:01:55;10.93;;;5.33;;
50379;SDS011;37474;59.468;18.040;2023-12-20T12:04:28;11.43;;;4.63;;
50379;SDS011;37474;59.468;18.040;2023-12-20T12:06:56;10.30;;;4.80;;
50379;SDS011;37474;59.468;18.040;2023-12-20T12:09:24;9.13;;;4.73;;
50379;SDS011;37474;59.468;18.040;2023-12-20T12:11:52;10.50;;;4.70;;
50379;SDS011;37474;59.468;18.040;2023-12-20T12:14:23;9.33;;;4.87;;
50379;SDS011;37474;59.468;18.040;2023-12-20T12:16:51;9.07;;;4.23;;
50379;SDS011;37474;59.468;18.040;2023-12-20T12:19:20;9.80;;;4.23;;
50379;SDS011;37474;59.468;18.040;2023-12-20T12:21:48;9.97;;;4.70;;
50379;SDS011;37474;59.468;18.040;2023-12-20T12:24:19;9.03;;;4.07;;
50379;SDS011;37474;59.468;18.040;2023-12-20T12:26:49;12.90;;;5.20;;
50379;SDS011;37474;59.468;18.040;2023-12-20T12:29:18;7.40;;;4.40;;
50379;SDS011;37474;59.468;18.040;2023-12-20T12:31:51;7.10;;;4.00;;
50379;SDS011;37474;59.468;18.040;2023-12-20T12:34:19;9.33;;;4.30;;
50379;SDS011;37474;59.468;18.040;2023-12-20T12:36:48;6.70;;;3.60;;
50379;SDS011;37474;59.468;18.040;2023-12-20T12:41:48;5.57;;;3.77;;
50379;SDS011;37474;59.468;18.040;2023-12-20T12:44:16;4.50;;;3.03;;
50379;SDS011;37474;59.468;18.040;2023-12-20T12:46:45;6.47;;;3.43;;
50379;SDS011;37474;59.468;18.040;2023-12-20T12:49:19;6.00;;;3.30;;
50379;SDS011;37474;59.468;18.040;2023-12-20T12:51:47;6.10;;;3.67;;
50379;SDS011;37474;59.468;18.040;2023-12-20T12:54:15;5.80;;;3.17;;
50379;SDS011;37474;59.468;18.040;2023-12-20T12:56:44;4.33;;;3.07;;
50379;SDS011;37474;59.468;18.040;2023-12-20T12:59:14;5.45;;;3.25;;
50379;SDS011;37474;59.468;18.040;2023-12-20T13:01:42;6.00;;;3.20;;
50379;SDS011;37474;59.468;18.040;2023-12-20T13:04:11;5.83;;;3.10;;
50379;SDS011;37474;59.468;18.040;2023-12-20T13:06:39;7.30;;;3.10;;
50379;SDS011;37474;59.468;18.040;2023-12-20T13:09:08;5.53;;;3.13;;
50379;SDS011;37474;59.468;18.040;2023-12-20T13:11:37;6.27;;;3.30;;
50379;SDS011;37474;59.468;18.040;2023-12-20T13:14:05;4.43;;;3.30;;
50379;SDS011;37474;59.468;18.040;2023-12-20T13:16:37;6.27;;;3.73;;
50379;SDS011;37474;59.468;18.040;2023-12-20T13:19:05;4.60;;;2.80;;
50379;SDS011;37474;59.468;18.040;2023-12-20T13:21:34;5.17;;;3.20;;
50379;SDS011;37474;59.468;18.040;2023-12-20T13:24:02;13.35;;;6.65;;
50379;SDS011;37474;59.468;18.040;2023-12-20T13:26:31;10.43;;;5.03;;
50379;SDS011;37474;59.468;18.040;2023-12-20T13:29:00;15.53;;;7.10;;
50379;SDS011;37474;59.468;18.040;2023-12-20T13:31:28;20.73;;;9.07;;
50379;SDS011;37474;59.468;18.040;2023-12-20T13:33:56;23.13;;;9.70;;
50379;SDS011;37474;59.468;18.040;2023-12-20T13:36:25;17.13;;;8.00;;
50379;SDS011;37474;59.468;18.040;2023-12-20T13:38:57;17.10;;;7.67;;
50379;SDS011;37474;59.468;18.040;2023-12-20T13:41:25;15.25;;;6.80;;
50379;SDS011;37474;59.468;18.040;2023-12-20T13:43:53;9.20;;;5.03;;
50379;SDS011;37474;59.468;18.040;2023-12-20T13:46:21;8.93;;;4.93;;
50379;SDS011;37474;59.468;18.040;2023-12-20T13:48:50;9.97;;;5.50;;
50379;SDS011;37474;59.468;18.040;2023-12-20T13:51:18;8.87;;;5.13;;
50379;SDS011;37474;59.468;18.040;2023-12-20T13:53:47;8.33;;;5.23;;
50379;SDS011;37474;59.468;18.040;2023-12-20T13:56:17;7.23;;;4.80;;
50379;SDS011;37474;59.468;18.040;2023-12-20T13:58:46;7.13;;;5.00;;
50379;SDS011;37474;59.468;18.040;2023-12-20T14:01:15;7.40;;;5.20;;
50379;SDS011;37474;59.468;18.040;2023-12-20T14:03:46;9.63;;;5.10;;
50379;SDS011;37474;59.468;18.040;2023-12-20T14:06:13;13.43;;;5.90;;
50379;SDS011;37474;59.468;18.040;2023-12-20T14:08:42;10.50;;;5.73;;
50379;SDS011;37474;59.468;18.040;2023-12-20T14:11:11;10.50;;;6.60;;
50379;SDS011;37474;59.468;18.040;2023-12-20T14:13:41;10.27;;;6.07;;
50379;SDS011;37474;59.468;18.040;2023-12-20T14:16:09;10.38;;;5.93;;
50379;SDS011;37474;59.468;18.040;2023-12-20T14:18:39;12.97;;;7.20;;
50379;SDS011;37474;59.468;18.040;2023-12-20T14:21:09;13.07;;;6.97;;
50379;SDS011;37474;59.468;18.040;2023-12-20T14:23:37;11.23;;;7.10;;
50379;SDS011;37474;59.468;18.040;2023-12-20T14:26:07;13.30;;;7.88;;
50379;SDS011;37474;59.468;18.040;2023-12-20T14:28:41;12.20;;;7.63;;
50379;SDS011;37474;59.468;18.040;2023-12-20T14:31:10;11.85;;;7.43;;
50379;SDS011;37474;59.468;18.040;2023-12-20T14:33:38;14.27;;;8.73;;
50379;SDS011;37474;59.468;18.040;2023-12-20T14:36:08;16.70;;;8.48;;
50379;SDS011;37474;59.468;18.040;2023-12-20T14:38:36;14.63;;;8.87;;
50379;SDS011;37474;59.468;18.040;2023-12-20T14:41:08;14.90;;;8.97;;
50379;SDS011;37474;59.468;18.040;2023-12-20T14:43:36;16.03;;;9.10;;
50379;SDS011;37474;59.468;18.040;2023-12-20T14:46:05;15.60;;;8.90;;